Time;durP1;ratioP1;P1;durP2;ratioP2;P2;SDS_P1;SDS_P2;PMS_P1;PMS_P2;Temp;Humidity;BMP_temperature;BMP_pressure;BME280_temperature;BME280_humidity;BME280_pressure;Samples;Min_cycle;Max_cycle;Signal;HPM_P1;HPM_P2
2022/10/20 00:00:59;;;;;;;20.90;8.38;;;;;;;5.48;84.62;100207.00;1773952;81;20986;-41
2022/10/20 00:03:27;;;;;;;18.00;7.93;;;;;;;5.43;84.21;100211.44;1774419;81;20986;-40
2022/10/20 00:05:54;;;;;;;22.00;8.65;;;;;;;5.39;84.87;100205.42;1773992;81;21014;-40
2022/10/20 00:08:20;;;;;;;25.12;9.03;;;;;;;5.26;84.99;100205.25;1773929;81;21021;-43
2022/10/20 00:10:55;;;;;;;15.05;8.00;;;;;;;5.23;84.91;100203.14;1773856;81;20994;-42
2022/10/20 00:13:21;;;;;;;19.05;7.75;;;;;;;5.20;85.04;100211.87;1773064;81;20987;-40
2022/10/20 00:15:51;;;;;;;17.48;8.03;;;;;;;5.21;84.90;100212.30;1773803;81;20971;-41
2022/10/20 00:18:17;;;;;;;18.50;8.00;;;;;;;5.16;85.42;100212.82;1773027;81;20986;-40
2022/10/20 00:20:43;;;;;;;14.68;7.70;;;;;;;5.07;85.79;100218.20;1773586;81;21046;-41
2022/10/20 00:23:09;;;;;;;18.90;8.18;;;;;;;5.08;85.82;100223.84;1773904;81;21034;-40
2022/10/20 00:25:35;;;;;;;14.13;7.12;;;;;;;5.05;86.02;100227.80;1773867;81;21455;-42
2022/10/20 00:28:00;;;;;;;21.10;8.18;;;;;;;5.09;86.11;100224.25;1773809;81;21030;-43
2022/10/20 00:30:26;;;;;;;18.10;7.47;;;;;;;5.05;85.82;100224.74;1773805;81;21241;-43
2022/10/20 00:32:52;;;;;;;19.12;7.20;;;;;;;5.06;86.01;100219.08;1773815;81;20967;-42
2022/10/20 00:35:18;;;;;;;16.73;7.22;;;;;;;5.05;86.00;100223.44;1773792;81;21026;-43
2022/10/20 00:37:43;;;;;;;13.60;7.28;;;;;;;5.05;86.21;100221.28;1773821;81;20994;-44
2022/10/20 00:40:10;;;;;;;15.08;7.45;;;;;;;5.08;86.33;100225.16;1773609;81;21368;-43
2022/10/20 00:42:36;;;;;;;13.75;7.22;;;;;;;5.07;85.88;100225.58;1773806;81;21463;-41
2022/10/20 00:45:02;;;;;;;17.57;7.30;;;;;;;5.07;86.36;100222.97;1773956;81;21439;-43
2022/10/20 00:47:45;;;;;;;21.62;7.90;;;;;;;5.04;86.21;100223.46;1773837;81;21444;-43
2022/10/20 00:50:27;;;;;;;15.98;8.15;;;;;;;4.99;85.83;100226.17;1777128;81;21491;-42
2022/10/20 00:52:54;;;;;;;17.00;8.15;;;;;;;4.94;85.65;100233.20;1777099;81;20963;-43
2022/10/20 00:55:26;;;;;;;;;;;;;;;4.91;85.99;100224.13;1779680;81;21488;-43
2022/10/20 00:57:56;;;;;;;14.47;7.58;;;;;;;4.80;86.65;100214.76;1777134;81;20453;-43
2022/10/20 01:00:23;;;;;;;13.58;7.42;;;;;;;4.77;87.07;100212.20;1790880;80;21515;-42
2022/10/20 01:02:51;;;;;;;11.28;6.65;;;;;;;4.81;87.12;100215.16;1759937;81;20991;-42
2022/10/20 01:05:18;;;;;;;14.18;7.55;;;;;;;4.78;87.28;100214.34;1759733;81;21049;-40
2022/10/20 01:07:44;;;;;;;13.28;7.40;;;;;;;4.75;87.31;100209.21;1759874;81;21475;-41
2022/10/20 01:10:11;;;;;;;12.58;6.97;;;;;;;4.73;87.71;100203.14;1759681;81;20982;-40
2022/10/20 01:13:00;;;;;;;17.25;7.22;;;;;;;4.74;87.49;100202.27;1759870;81;20987;-40
2022/10/20 01:15:51;;;;;;;15.35;7.65;;;;;;;4.72;87.76;100200.98;1759720;81;21038;-41
2022/10/20 01:18:47;;;;;;;16.17;7.17;;;;;;;4.68;87.88;100199.33;1759491;81;20959;-40
2022/10/20 01:21:38;;;;;;;12.15;7.10;;;;;;;4.75;87.54;100202.70;1759653;81;20981;-43
2022/10/20 01:24:39;;;;;;;17.00;7.45;;;;;;;4.75;87.56;100193.58;1759705;81;20987;-43
2022/10/20 01:27:31;;;;;;;13.05;7.17;;;;;;;4.80;87.57;100190.42;1758914;81;20963;-40
2022/10/20 01:30:19;;;;;;;21.62;7.42;;;;;;;4.88;87.07;100191.61;1759726;81;20971;-42
2022/10/20 01:33:22;;;;;;;15.00;7.03;;;;;;;4.88;87.50;100184.65;1759714;81;21433;-40
2022/10/20 01:35:59;;;;;;;14.18;7.37;;;;;;;4.89;87.52;100185.05;1748786;81;21484;-44
2022/10/20 01:38:39;;;;;;;16.23;6.80;;;;;;;4.90;87.29;100182.87;1741023;82;21001;-43
2022/10/20 01:41:23;;;;;;;17.60;7.53;;;;;;;4.87;87.02;100185.52;1740737;82;20989;-42
2022/10/20 01:43:50;;;;;;;13.75;6.92;;;;;;;4.90;87.17;100188.53;1740698;82;20994;-43
2022/10/20 01:46:20;;;;;;;17.85;7.42;;;;;;;4.90;87.06;100192.45;1740977;82;21051;-42
2022/10/20 01:48:47;;;;;;;18.10;7.08;;;;;;;4.90;86.91;100186.78;1739485;82;21677;-41
2022/10/20 01:51:13;;;;;;;13.30;7.17;;;;;;;4.92;86.90;100191.52;1738080;82;20967;-43
2022/10/20 01:53:38;;;;;;;13.68;6.95;;;;;;;4.92;87.15;100185.00;1737976;82;21006;-46
2022/10/20 01:56:08;;;;;;;13.20;7.17;;;;;;;4.89;87.20;100183.74;1737924;82;20983;-40
2022/10/20 01:58:49;;;;;;;11.95;7.25;;;;;;;4.89;86.91;100186.34;1737887;82;20971;-43
2022/10/20 02:01:59;;;;;;;15.70;7.47;;;;;;;4.90;86.92;100182.02;1707127;82;21039;-43
2022/10/20 02:04:36;;;;;;;14.38;7.60;;;;;;;4.89;87.01;100186.34;1737892;82;21441;-43
2022/10/20 02:07:10;;;;;;;13.22;7.35;;;;;;;4.82;87.07;100178.25;1737083;82;20986;-42
2022/10/20 02:09:49;;;;;;;11.70;7.65;;;;;;;4.85;87.15;100182.09;1737960;82;21464;-41
2022/10/20 02:12:20;;;;;;;12.20;7.47;;;;;;;4.86;87.13;100177.30;1738030;82;21010;-42
2022/10/20 02:14:47;;;;;;;16.25;8.45;;;;;;;4.87;87.21;100177.70;1738144;82;21560;-40
2022/10/20 02:17:15;;;;;;;14.20;7.73;;;;;;;4.89;87.11;100175.92;1738173;82;20994;-41
2022/10/20 02:19:44;;;;;;;15.18;7.83;;;;;;;4.88;87.22;100184.65;1737992;82;21484;-43
2022/10/20 02:22:13;;;;;;;15.03;7.70;;;;;;;4.86;87.61;100181.22;1738068;82;21421;-41
2022/10/20 02:24:41;;;;;;;15.05;7.55;;;;;;;4.85;87.39;100174.27;1737908;82;21480;-41
2022/10/20 02:27:15;;;;;;;16.57;7.90;;;;;;;4.85;87.17;100169.05;1737976;82;20971;-42
2022/10/20 02:29:57;;;;;;;16.40;8.68;;;;;;;4.84;87.20;100167.35;1737984;82;21003;-43
2022/10/20 02:32:24;;;;;;;15.50;7.28;;;;;;;4.87;87.19;100171.19;1737918;82;21480;-41
2022/10/20 02:34:50;;;;;;;12.30;7.72;;;;;;;4.87;87.61;100167.73;1738013;82;20999;-40
2022/10/20 02:37:16;;;;;;;14.93;7.92;;;;;;;4.88;87.64;100171.62;1737878;82;21015;-40
2022/10/20 02:39:42;;;;;;;19.00;8.05;;;;;;;4.90;87.43;100172.45;1737894;82;21007;-42
2022/10/20 02:43:26;;;;;;;16.62;8.48;;;;;;;4.95;87.47;100179.74;1789859;78;29886;-41
2022/10/20 02:45:52;;;;;;;21.40;8.20;;;;;;;5.06;86.60;100185.19;1780066;80;21093;-41
2022/10/20 02:48:18;;;;;;;16.37;8.33;;;;;;;5.06;87.31;100185.19;1777842;80;20998;-40
2022/10/20 02:50:43;;;;;;;20.02;8.45;;;;;;;5.07;87.47;100184.31;1797299;79;21066;-41
2022/10/20 02:53:09;;;;;;;15.13;8.18;;;;;;;5.08;87.43;100182.98;1802506;79;21006;-41
2022/10/20 02:55:35;;;;;;;13.55;8.03;;;;;;;5.04;87.21;100183.94;1807312;79;20998;-40
2022/10/20 02:58:01;;;;;;;18.35;8.53;;;;;;;5.04;86.96;100181.75;1787122;79;20999;-44
2022/10/20 03:00:29;;;;;;;17.55;7.53;;;;;;;5.02;87.27;100183.53;1783223;79;20966;-41
2022/10/20 03:02:54;;;;;;;;;;;;;;;4.99;87.13;100181.40;1804992;79;21132;-38
2022/10/20 03:05:20;;;;;;;15.20;8.05;;;;;;;4.94;87.55;100185.83;1796933;79;20431;-41
2022/10/20 03:07:46;;;;;;;19.60;9.15;;;;;;;4.95;87.42;100185.41;1788412;80;20967;-39
2022/10/20 03:10:12;;;;;;;16.37;7.97;;;;;;;4.95;87.23;100191.47;1796271;79;21002;-41
2022/10/20 03:12:37;;;;;;;17.52;9.33;;;;;;;4.95;87.02;100191.92;1795011;79;20991;-41
2022/10/20 03:15:04;;;;;;;18.90;9.33;;;;;;;4.92;86.66;100192.82;1783736;79;21045;-38
2022/10/20 03:17:30;;;;;;;17.00;8.28;;;;;;;4.91;86.76;100195.45;1786182;79;20994;-42
2022/10/20 03:19:56;;;;;;;26.82;8.50;;;;;;;4.87;87.29;100198.55;1786092;79;21009;-42
2022/10/20 03:22:22;;;;;;;19.67;9.45;;;;;;;4.86;86.58;100196.85;1788421;79;21009;-41
2022/10/20 03:24:48;;;;;;;23.62;12.20;;;;;;;4.84;86.54;100193.42;1792661;79;21015;-39
2022/10/20 03:27:13;;;;;;;20.92;10.28;;;;;;;4.82;86.32;100203.02;1798369;79;21006;-42
2022/10/20 03:29:39;;;;;;;23.07;8.68;;;;;;;4.79;86.14;100206.96;1794865;79;21013;-38
2022/10/20 03:32:05;;;;;;;19.12;8.43;;;;;;;4.78;86.14;100210.02;1787522;79;21001;-43
2022/10/20 03:34:31;;;;;;;16.65;7.72;;;;;;;4.78;85.87;100203.50;1807418;79;21597;-38
2022/10/20 03:36:56;;;;;;;16.32;8.58;;;;;;;4.76;85.71;100209.61;1796871;79;21584;-40
2022/10/20 03:39:22;;;;;;;19.25;9.00;;;;;;;4.67;85.61;100206.70;1798101;79;20994;-40
2022/10/20 03:41:48;;;;;;;28.30;9.40;;;;;;;4.63;85.27;100206.80;1781229;79;21002;-44
2022/10/20 03:44:13;;;;;;;21.37;9.20;;;;;;;4.58;85.57;100205.14;1789729;79;20967;-42
2022/10/20 03:46:39;;;;;;;20.88;8.63;;;;;;;4.54;85.35;100211.26;1780189;80;21000;-43
2022/10/20 03:49:05;;;;;;;26.42;10.18;;;;;;;4.52;85.68;100203.91;1773592;80;20970;-41
2022/10/20 03:51:31;;;;;;;18.82;9.38;;;;;;;4.50;85.75;100205.69;1774648;80;21022;-39
2022/10/20 03:53:56;;;;;;;21.15;9.78;;;;;;;4.46;85.72;100203.14;1766853;80;21055;-40
2022/10/20 03:56:22;;;;;;;26.93;10.72;;;;;;;4.47;85.67;100200.97;1773727;80;21020;-41
2022/10/20 03:58:48;;;;;;;19.73;9.65;;;;;;;4.46;85.50;100204.44;1786259;80;21022;-39
2022/10/20 04:01:16;;;;;;;21.87;9.58;;;;;;;4.45;85.24;100208.80;1760199;79;21008;-42
2022/10/20 04:03:46;;;;;;;18.40;9.50;;;;;;;4.39;85.15;100207.61;1760623;80;21492;-38
2022/10/20 04:06:14;;;;;;;20.35;10.35;;;;;;;4.31;85.40;100211.63;1792077;79;21007;-39
2022/10/20 04:08:40;;;;;;;21.60;9.93;;;;;;;4.23;85.68;100206.52;1766790;79;21074;-40
2022/10/20 04:11:06;;;;;;;25.57;10.18;;;;;;;4.22;85.82;100210.02;1772321;80;21012;-40
2022/10/20 04:13:32;;;;;;;18.62;9.53;;;;;;;4.21;85.93;100204.83;1773177;79;21622;-39
2022/10/20 04:15:58;;;;;;;18.87;9.43;;;;;;;4.17;86.19;100201.86;1759417;80;21568;-42
2022/10/20 04:18:24;;;;;;;17.32;9.55;;;;;;;4.14;86.42;100198.84;1759428;80;21060;-38
2022/10/20 04:20:50;;;;;;;21.02;10.08;;;;;;;4.12;86.53;100200.61;1779000;80;21465;-43
2022/10/20 04:23:15;;;;;;;19.27;9.83;;;;;;;4.07;86.82;100193.30;1770513;80;21062;-42
2022/10/20 04:25:46;;;;;;;21.00;9.83;;;;;;;4.11;86.80;100195.00;1759787;80;21047;-41
2022/10/20 04:28:12;;;;;;;18.48;8.95;;;;;;;4.07;86.43;100189.84;1768541;80;20995;-41
2022/10/20 04:30:38;;;;;;;17.45;9.50;;;;;;;4.06;86.76;100189.41;1767849;80;21049;-37
2022/10/20 04:33:04;;;;;;;22.95;10.48;;;;;;;4.01;87.03;100179.09;1777389;79;21514;-38
2022/10/20 04:35:30;;;;;;;22.45;9.80;;;;;;;3.99;87.13;100175.65;1770346;81;21006;-40
2022/10/20 04:37:56;;;;;;;19.30;9.38;;;;;;;3.95;87.40;100170.08;1771162;80;20995;-37
2022/10/20 04:40:21;;;;;;;21.05;9.43;;;;;;;3.99;87.66;100172.59;1779374;79;21000;-41
2022/10/20 04:42:47;;;;;;;20.85;9.73;;;;;;;3.97;87.25;100175.66;1772061;80;20992;-39
2022/10/20 04:45:13;;;;;;;22.60;9.28;;;;;;;3.93;87.51;100167.91;1777927;80;21000;-41
2022/10/20 04:47:39;;;;;;;24.87;10.18;;;;;;;3.93;87.53;100164.89;1780637;80;21010;-37
2022/10/20 04:50:05;;;;;;;19.95;10.48;;;;;;;3.93;87.96;100165.30;1770634;80;21053;-43
2022/10/20 04:52:31;;;;;;;24.20;11.28;;;;;;;3.92;88.17;100160.55;1771612;80;21567;-41
2022/10/20 04:54:57;;;;;;;31.37;12.78;;;;;;;3.93;88.11;100155.78;1767006;80;21464;-38
2022/10/20 04:57:23;;;;;;;26.93;13.13;;;;;;;3.93;88.09;100160.10;1773349;79;21038;-40
2022/10/20 04:59:49;;;;;;;31.20;13.40;;;;;;;3.93;87.91;100160.98;1776180;80;21638;-41
2022/10/20 05:02:14;;;;;;;33.38;12.25;;;;;;;3.94;87.85;100161.83;1773268;80;21003;-40
2022/10/20 05:04:40;;;;;;;33.08;14.35;;;;;;;3.95;87.87;100169.63;1777330;80;21050;-41
2022/10/20 05:07:06;;;;;;;45.48;16.30;;;;;;;3.94;88.11;100163.98;1773840;80;21003;-39
2022/10/20 05:09:32;;;;;;;37.70;17.95;;;;;;;3.96;88.06;100162.67;1769686;80;21177;-42
2022/10/20 05:11:59;;;;;;;43.87;19.48;;;;;;;3.96;87.75;100169.17;1758908;81;20976;-42
2022/10/20 05:14:24;;;;;;;39.30;17.87;;;;;;;3.96;87.69;100170.48;1765433;80;21013;-41
2022/10/20 05:16:51;;;;;;;36.42;17.32;;;;;;;3.95;87.70;100172.23;1757038;80;20996;-43
2022/10/20 05:19:17;;;;;;;37.93;17.32;;;;;;;3.95;88.00;100173.98;1762425;80;21016;-39
2022/10/20 05:21:43;;;;;;;40.97;17.37;;;;;;;3.94;87.88;100174.84;1761492;80;21007;-42
2022/10/20 05:24:17;;;;;;;34.30;17.15;;;;;;;3.93;87.92;100180.92;1781650;80;21015;-40
2022/10/20 05:26:43;;;;;;;37.10;17.48;;;;;;;3.94;88.10;100178.75;1768820;80;21473;-38
2022/10/20 05:29:10;;;;;;;35.48;17.32;;;;;;;3.96;88.42;100175.69;1757223;80;20989;-42
2022/10/20 05:31:42;;;;;;;36.23;15.90;;;;;;;3.97;88.01;100176.11;1768623;80;20992;-42
2022/10/20 05:34:09;;;;;;;35.98;15.95;;;;;;;3.97;88.31;100173.52;1773261;80;20991;-40
2022/10/20 05:36:35;;;;;;;28.38;15.75;;;;;;;3.98;88.33;100172.61;1780211;80;21070;-40
2022/10/20 05:39:01;;;;;;;37.70;15.88;;;;;;;4.02;88.45;100175.16;1772024;80;21564;-39
2022/10/20 05:41:30;;;;;;;36.20;16.12;;;;;;;4.01;88.15;100176.03;1762373;80;21066;-42
2022/10/20 05:44:00;;;;;;;33.90;16.40;;;;;;;4.03;88.31;100180.77;1757989;80;21481;-44
2022/10/20 05:46:29;;;;;;;35.10;15.65;;;;;;;4.07;88.36;100186.80;1777899;80;21047;-42
2022/10/20 05:48:59;;;;;;;35.55;16.57;;;;;;;4.11;88.25;100191.09;1763000;80;21058;-44
2022/10/20 05:51:29;;;;;;;34.95;16.97;;;;;;;4.12;88.18;100198.00;1786633;80;21149;-41
2022/10/20 05:53:56;;;;;;;42.20;18.17;;;;;;;4.13;88.15;100204.06;1772949;80;21023;-43
2022/10/20 05:56:23;;;;;;;;;;;;;;;4.15;88.18;100203.17;1786431;80;21003;-42
2022/10/20 05:58:49;;;;;;;37.73;16.07;;;;;;;4.14;88.73;100205.34;1783764;80;20104;-41
2022/10/20 06:01:22;;;;;;;46.15;15.93;;;;;;;4.18;88.75;100216.58;1783639;80;21500;-43
2022/10/20 06:03:54;;;;;;;39.85;16.20;;;;;;;4.21;88.65;100214.80;1783474;80;20980;-41
2022/10/20 06:06:25;;;;;;;36.93;16.75;;;;;;;4.25;88.69;100216.06;1783642;80;21023;-39
2022/10/20 06:08:52;;;;;;;37.95;17.75;;;;;;;4.28;88.90;100218.62;1782263;80;20991;-40
2022/10/20 06:11:19;;;;;;;48.80;17.92;;;;;;;4.32;88.64;100222.45;1783830;80;20960;-42
2022/10/20 06:13:46;;;;;;;55.80;16.52;;;;;;;4.35;88.65;100226.77;1783908;80;20986;-41
2022/10/20 06:16:15;;;;;;;44.10;14.33;;;;;;;4.37;88.15;100218.04;1783674;80;20971;-43
2022/10/20 06:18:44;;;;;;;51.65;15.30;;;;;;;4.41;88.05;100232.73;1783650;80;20999;-42
2022/10/20 06:21:19;;;;;;;40.43;15.00;;;;;;;4.46;88.08;100233.97;1783710;80;21515;-43
2022/10/20 06:23:45;;;;;;;44.48;15.58;;;;;;;4.50;87.71;100234.34;1783748;80;20988;-41
2022/10/20 06:26:18;;;;;;;40.20;15.40;;;;;;;4.53;87.71;100235.60;1783749;80;20968;-40
2022/10/20 06:28:47;;;;;;;41.13;15.68;;;;;;;4.55;87.65;100239.05;1783676;80;21034;-44
2022/10/20 06:31:28;;;;;;;57.03;17.05;;;;;;;4.60;88.11;100237.23;1783636;80;21504;-40
2022/10/20 06:33:55;;;;;;;43.98;15.40;;;;;;;4.64;88.08;100233.25;1773731;80;21003;-42
2022/10/20 06:36:22;;;;;;;41.53;16.30;;;;;;;4.67;88.38;100237.13;1783681;80;20994;-42
2022/10/20 06:38:54;;;;;;;39.18;15.70;;;;;;;4.69;88.47;100233.59;1783915;80;20952;-44
2022/10/20 06:41:20;;;;;;;43.55;15.48;;;;;;;4.74;88.30;100241.35;1783640;80;21031;-42
2022/10/20 06:43:46;;;;;;;36.98;15.03;;;;;;;4.77;88.45;100240.01;1783600;80;20990;-40
2022/10/20 06:46:15;;;;;;;48.80;17.07;;;;;;;4.81;88.42;100240.37;1783769;80;21460;-42
2022/10/20 06:48:42;;;;;;;48.25;18.00;;;;;;;4.86;88.85;100238.55;1783712;80;20991;-43
2022/10/20 06:51:14;;;;;;;46.63;17.95;;;;;;;4.92;88.58;100238.44;1783697;80;20975;-43
2022/10/20 06:53:42;;;;;;;56.28;19.70;;;;;;;4.95;88.30;100241.00;1783727;80;20991;-39
2022/10/20 06:56:13;;;;;;;56.85;20.85;;;;;;;4.99;88.51;100243.96;1783766;80;21535;-41
2022/10/20 06:58:40;;;;;;;49.13;19.80;;;;;;;5.07;89.06;100249.48;1783130;80;21007;-39
2022/10/20 07:01:09;;;;;;;;;;;;;;;5.15;89.25;100250.23;1786294;80;21476;-43
2022/10/20 07:03:36;;;;;;;60.28;21.97;;;;;;;5.17;88.95;100257.13;1775791;80;20445;-39
2022/10/20 07:06:03;;;;;;;50.92;20.48;;;;;;;5.24;88.69;100252.67;1762781;80;21564;-39
2022/10/20 07:08:31;;;;;;;44.13;19.65;;;;;;;5.29;88.76;100250.81;1770066;80;21023;-40
2022/10/20 07:11:01;;;;;;;58.42;20.88;;;;;;;5.37;88.39;100258.07;1768767;80;20987;-40
2022/10/20 07:13:29;;;;;;;55.35;19.50;;;;;;;5.46;89.15;100256.19;1774294;80;21027;-39
2022/10/20 07:15:57;;;;;;;45.52;19.07;;;;;;;5.53;88.65;100258.65;1769114;80;21015;-40
2022/10/20 07:18:24;;;;;;;52.17;19.32;;;;;;;5.59;88.60;100260.28;1769257;80;21045;-43
2022/10/20 07:20:50;;;;;;;60.92;18.52;;;;;;;5.67;89.00;100267.50;1768956;80;21015;-42
2022/10/20 07:23:17;;;;;;;47.27;17.90;;;;;;;5.76;88.87;100275.59;1757941;80;21539;-42
2022/10/20 07:25:42;;;;;;;48.08;17.52;;;;;;;5.84;88.26;100274.13;1771172;80;21069;-40
2022/10/20 07:28:08;;;;;;;48.25;17.45;;;;;;;5.93;88.24;100279.16;1760670;80;21028;-41
2022/10/20 07:30:41;;;;;;;42.13;18.05;;;;;;;6.01;87.97;100272.53;1767020;80;21003;-40
2022/10/20 07:33:08;;;;;;;45.15;18.80;;;;;;;6.10;87.95;100275.80;1760762;80;21013;-42
2022/10/20 07:35:35;;;;;;;39.20;18.05;;;;;;;6.18;87.64;100276.09;1766301;80;21011;-40
2022/10/20 07:38:01;;;;;;;44.43;16.90;;;;;;;6.34;88.19;100280.08;1769381;79;21023;-42
2022/10/20 07:40:27;;;;;;;43.52;18.52;;;;;;;6.34;88.19;100280.08;1777001;80;21432;-41
2022/10/20 07:42:53;;;;;;;41.00;18.20;;;;;;;6.42;87.62;100271.64;1769329;80;20989;-40
2022/10/20 07:45:19;;;;;;;44.90;16.95;;;;;;;6.50;87.38;100277.54;1764124;80;21007;-40
2022/10/20 07:47:45;;;;;;;43.15;17.07;;;;;;;6.58;86.30;100276.50;1763524;80;21461;-41
2022/10/20 07:50:11;;;;;;;48.83;18.23;;;;;;;6.65;85.89;100282.00;1777039;80;21037;-38
2022/10/20 07:52:38;;;;;;;38.98;14.68;;;;;;;6.74;85.91;100288.32;1775726;80;21013;-38
2022/10/20 07:55:06;;;;;;;33.50;12.80;;;;;;;6.81;85.85;100291.20;1771420;80;20987;-39
2022/10/20 07:57:31;;;;;;;26.40;11.80;;;;;;;6.87;84.91;100281.89;1771074;80;21067;-40
2022/10/20 07:59:57;;;;;;;19.25;10.45;;;;;;;6.93;84.72;100279.61;1782778;80;21010;-44
2022/10/20 08:02:23;;;;;;;23.62;8.70;;;;;;;6.99;83.58;100283.83;1765743;80;21052;-39
2022/10/20 08:04:49;;;;;;;30.65;10.05;;;;;;;7.07;82.85;100284.47;1762813;80;21453;-40
2022/10/20 08:07:16;;;;;;;17.00;8.60;;;;;;;7.16;83.60;100281.63;1762103;80;21512;-42
2022/10/20 08:09:42;;;;;;;15.45;7.90;;;;;;;7.25;83.74;100276.16;1770955;80;21034;-41
2022/10/20 08:12:08;;;;;;;17.57;7.40;;;;;;;7.32;82.50;100282.55;1766742;80;21016;-42
2022/10/20 08:14:36;;;;;;;17.27;6.25;;;;;;;7.43;82.75;100283.12;1774309;80;21026;-41
2022/10/20 08:17:03;;;;;;;10.55;6.10;;;;;;;7.52;81.91;100280.72;1759656;80;21008;-41
2022/10/20 08:19:29;;;;;;;7.50;4.92;;;;;;;7.62;81.84;100288.28;1754546;80;21015;-39
2022/10/20 08:21:54;;;;;;;11.03;5.50;;;;;;;7.76;81.73;100281.34;1765908;80;21095;-41
2022/10/20 08:24:20;;;;;;;12.00;5.87;;;;;;;7.94;80.85;100282.59;1762078;80;21020;-40
2022/10/20 08:26:46;;;;;;;10.15;5.25;;;;;;;8.11;80.13;100285.17;1769355;80;21497;-39
2022/10/20 08:29:12;;;;;;;14.53;6.30;;;;;;;8.36;78.43;100283.99;1757477;80;21810;-40
2022/10/20 08:31:38;;;;;;;21.70;6.05;;;;;;;8.79;77.19;100290.56;1801647;79;21034;-42
2022/10/20 08:34:05;;;;;;;15.05;6.12;;;;;;;9.14;75.09;100286.77;1787254;80;21011;-40
2022/10/20 08:36:30;;;;;;;23.95;8.10;;;;;;;9.41;75.92;100293.33;1775215;80;20996;-40
2022/10/20 08:39:00;;;;;;;15.43;7.12;;;;;;;9.55;76.22;100287.57;1769228;80;21093;-41
2022/10/20 08:41:32;;;;;;;14.98;8.05;;;;;;;9.56;74.73;100286.67;1779079;80;21097;-41
2022/10/20 08:44:01;;;;;;;15.63;6.90;;;;;;;9.75;74.41;100287.74;1789392;79;21019;-40
2022/10/20 08:46:37;;;;;;;12.78;6.28;;;;;;;9.91;72.41;100285.39;1783283;79;21496;-39
2022/10/20 08:49:08;;;;;;;12.20;6.08;;;;;;;10.05;71.85;100286.67;1758381;80;21014;-41
2022/10/20 08:51:37;;;;;;;10.60;6.28;;;;;;;10.03;70.07;100289.82;1782343;80;20991;-39
2022/10/20 08:54:08;;;;;;;20.77;7.80;;;;;;;10.04;70.15;100282.31;1770571;80;21571;-44
2022/10/20 08:56:34;;;;;;;13.43;6.42;;;;;;;9.92;70.07;100287.59;1774882;80;21047;-37
2022/10/20 08:59:02;;;;;;;12.40;6.00;;;;;;;9.74;70.69;100289.11;1769819;80;21059;-37
2022/10/20 09:01:34;;;;;;;10.75;5.92;;;;;;;9.68;70.26;100289.30;1766773;80;21511;-39
2022/10/20 09:04:23;;;;;;;12.40;5.83;;;;;;;9.70;71.05;100291.45;1776605;80;20991;-39
2022/10/20 09:07:06;;;;;;;7.25;4.67;;;;;;;9.63;70.24;100289.48;1766137;80;20987;-42
2022/10/20 09:09:32;;;;;;;8.45;5.15;;;;;;;9.54;70.47;100286.72;1777642;80;20998;-38
2022/10/20 09:12:09;;;;;;;10.88;5.00;;;;;;;9.57;70.82;100285.78;1766657;80;21141;-38
2022/10/20 09:14:36;;;;;;;8.13;4.75;;;;;;;9.56;70.39;100288.84;1763842;80;21456;-40
2022/10/20 09:17:03;;;;;;;9.98;5.60;;;;;;;9.50;68.76;100279.02;1772564;80;21008;-42
2022/10/20 09:19:30;;;;;;;22.95;4.95;;;;;;;9.43;68.59;100276.20;1764009;80;21008;-37
2022/10/20 09:22:01;;;;;;;12.95;4.45;;;;;;;9.46;69.75;100276.95;1746863;80;20989;-41
2022/10/20 09:24:28;;;;;;;10.65;4.28;;;;;;;9.48;69.72;100275.13;1785186;79;20984;-38
2022/10/20 09:26:54;;;;;;;5.58;3.87;;;;;;;9.48;69.71;100275.56;1786825;79;21504;-44
2022/10/20 09:29:25;;;;;;;10.13;4.08;;;;;;;9.48;69.13;100272.51;1765997;79;21495;-41
2022/10/20 09:31:54;;;;;;;7.12;4.08;;;;;;;9.54;69.47;100269.66;1776646;80;20983;-45
2022/10/20 09:34:32;;;;;;;5.55;3.75;;;;;;;9.60;69.49;100265.52;1780705;80;21011;-38
2022/10/20 09:37:10;;;;;;;4.15;2.58;;;;;;;9.64;68.94;100266.27;1782505;79;21019;-42
2022/10/20 09:39:57;;;;;;;4.70;3.02;;;;;;;9.69;67.75;100266.08;1786127;79;20955;-38
2022/10/20 09:42:35;;;;;;;9.70;3.58;;;;;;;9.73;68.16;100263.30;1796696;79;21042;-41
2022/10/20 09:45:20;;;;;;;3.80;3.05;;;;;;;9.77;68.37;100259.64;1773707;80;21039;-42
2022/10/20 09:47:52;;;;;;;6.70;3.42;;;;;;;9.79;67.02;100256.97;1767290;80;20995;-38
2022/10/20 09:50:37;;;;;;;9.80;2.55;;;;;;;9.83;67.70;100261.19;1756692;81;20996;-41
2022/10/20 09:53:08;;;;;;;3.60;2.40;;;;;;;9.79;65.97;100255.19;1745834;80;21043;-39
2022/10/20 09:55:40;;;;;;;3.80;2.17;;;;;;;9.83;67.71;100251.99;1766568;80;20985;-38
2022/10/20 09:58:10;;;;;;;4.72;2.20;;;;;;;9.83;67.57;100248.05;1776943;79;20990;-40
2022/10/20 10:00:42;;;;;;;6.17;2.45;;;;;;;9.80;66.27;100249.47;1746851;81;20990;-43
2022/10/20 10:03:21;;;;;;;11.15;2.77;;;;;;;9.77;66.79;100252.23;1755328;80;20984;-39
2022/10/20 10:05:59;;;;;;;4.85;1.87;;;;;;;9.76;66.94;100255.76;1753562;81;20971;-41
2022/10/20 10:08:29;;;;;;;3.00;2.12;;;;;;;9.76;64.96;100254.44;1761017;80;21018;-43
2022/10/20 10:11:14;;;;;;;4.15;2.10;;;;;;;9.77;65.34;100254.39;1779888;80;21042;-41
2022/10/20 10:13:45;;;;;;;2.60;1.77;;;;;;;9.83;65.83;100253.30;1764296;80;20955;-39
2022/10/20 10:16:15;;;;;;;3.45;1.77;;;;;;;9.96;66.75;100244.51;1774762;79;21831;-39
2022/10/20 10:18:44;;;;;;;3.30;2.20;;;;;;;10.06;64.70;100245.01;1752861;80;21015;-42
2022/10/20 10:21:14;;;;;;;6.58;2.00;;;;;;;10.12;65.30;100241.70;1763472;80;21004;-43
2022/10/20 10:24:01;;;;;;;4.03;1.98;;;;;;;10.10;63.91;100245.31;1767021;81;20957;-40
2022/10/20 10:26:44;;;;;;;6.47;1.92;;;;;;;10.09;63.53;100244.44;1794422;79;21003;-39
2022/10/20 10:29:23;;;;;;;4.33;1.95;;;;;;;10.06;62.97;100239.75;1753545;80;21495;-39
2022/10/20 10:32:03;;;;;;;3.60;2.05;;;;;;;10.08;64.09;100235.32;1755444;80;21023;-41
2022/10/20 10:34:56;;;;;;;6.70;2.08;;;;;;;10.06;63.25;100232.75;1734484;81;21015;-40
2022/10/20 10:37:22;;;;;;;4.08;2.10;;;;;;;10.06;63.14;100222.67;1745348;80;21504;-42
2022/10/20 10:39:49;;;;;;;3.35;1.50;;;;;;;10.15;63.94;100217.06;1785539;80;20964;-41
2022/10/20 10:42:35;;;;;;;3.40;1.50;;;;;;;10.22;63.71;100217.69;1743388;80;20965;-42
2022/10/20 10:45:30;;;;;;;2.40;1.55;;;;;;;10.31;63.88;100218.20;1748441;81;21538;-40
2022/10/20 10:48:24;;;;;;;1.85;1.57;;;;;;;10.37;64.92;100215.35;1755750;81;21463;-38
2022/10/20 10:50:58;;;;;;;6.03;2.00;;;;;;;10.34;63.31;100218.09;1756136;80;20987;-40
2022/10/20 10:53:51;;;;;;;2.75;1.98;;;;;;;10.35;63.73;100211.05;1754016;80;20991;-39
2022/10/20 10:56:30;;;;;;;2.17;1.65;;;;;;;10.40;63.58;100209.56;1748307;80;21028;-40
2022/10/20 10:59:20;;;;;;;4.15;1.85;;;;;;;10.40;63.16;100208.25;1744553;81;21534;-43
2022/10/20 11:02:04;;;;;;;4.47;1.90;;;;;;;10.42;63.54;100205.10;1764132;80;21142;-41
2022/10/20 11:05:07;;;;;;;4.53;2.30;;;;;;;10.50;63.16;100203.03;1748877;81;20990;-40
2022/10/20 11:07:50;;;;;;;10.10;2.02;;;;;;;10.56;62.22;100200.14;1727770;81;21362;-41
2022/10/20 11:10:27;;;;;;;2.92;1.82;;;;;;;10.52;62.09;100197.25;1757240;80;21003;-38
2022/10/20 11:13:36;;;;;;;3.08;1.80;;;;;;;10.53;61.96;100195.88;1737734;81;20998;-41
2022/10/20 11:16:13;;;;;;;1.95;1.57;;;;;;;10.53;61.05;100198.95;1738887;81;20979;-45
2022/10/20 11:19:06;;;;;;;1.70;1.50;;;;;;;10.42;59.74;100198.53;1758301;80;20986;-42
2022/10/20 11:21:54;;;;;;;1.60;1.35;;;;;;;10.40;61.37;100184.59;1745665;80;21014;-42
2022/10/20 11:24:38;;;;;;;6.92;1.80;;;;;;;10.37;61.87;100187.75;1739557;81;20971;-44
2022/10/20 11:27:20;;;;;;;5.67;1.80;;;;;;;10.39;62.09;100186.37;1750236;81;21012;-44
2022/10/20 11:30:07;;;;;;;1.30;1.20;;;;;;;10.41;61.31;100179.74;1729472;81;21386;-45
2022/10/20 11:32:39;;;;;;;2.65;1.85;;;;;;;10.43;62.12;100172.17;1758650;80;21059;-44
2022/10/20 11:35:19;;;;;;;11.12;1.90;;;;;;;10.42;61.40;100174.39;1737836;80;21037;-44
2022/10/20 11:37:59;;;;;;;2.27;1.40;;;;;;;10.42;60.88;100173.08;1738712;81;21001;-41
2022/10/20 11:40:31;;;;;;;11.15;3.58;;;;;;;10.42;60.52;100170.45;1736763;81;20980;-44
2022/10/20 11:43:09;;;;;;;2.22;1.72;;;;;;;10.44;60.71;100162.50;1805856;78;21069;-45